CheckWX is a tool to help pilots better visualize weather data.  It is not intended as a substitute for an official pre-flight weather briefing.

03:36:47 UTC

KHSD METAR
Sundance Airport
Oklahoma City, Oklahoma, USA
Current

12 mins ago

KHSD 270325Z AUTO 14011KT 10SM FEW055 25/20 A2991 RMK A01
Observed
May-27 @ 03:25 UTC
Wind
  • 140° at 11 KTS
Visibility
10 SM
Flight Rules
VFR
Cloud Levels
  • Few at 5,500' AGL
Temperature
25°C / 77°F
Dewpoint
20°C / 68°F
Humidity
74%
Altimeter
29.91" Hg
Pressure
1012.92 hPa
Previous

32 mins ago

KHSD 270305Z AUTO 14010KT 10SM 25/20 A2991 RMK A01
Observed
May-27 @ 03:05 UTC
Wind
  • 140° at 10 KTS
Visibility
10 SM
Temperature
25°C / 77°F
Dewpoint
20°C / 68°F
Humidity
74%
Altimeter
29.91" Hg
Pressure
1012.92 hPa
Previous

52 mins ago

KHSD 270245Z AUTO 15011KT 10SM BKN055 BKN065 25/20 A2991 RMK A01
Observed
May-27 @ 02:45 UTC
Wind
  • 150° at 11 KTS
Visibility
10 SM
Flight Rules
VFR
Cloud Levels
  • Broken at 5,500' AGL
  • Broken at 6,500' AGL
Temperature
25°C / 77°F
Dewpoint
20°C / 68°F
Humidity
74%
Altimeter
29.91" Hg
Pressure
1012.92 hPa